LPE2332 SKRG-SPJC
Flight info
| Callsign | LPE2332 |
|---|---|
| Flight time | 2h 38m |
| Altitude | 38000 |
| Route | RNG2B RNG DCT PULTU UL305 PUNUD UT234 VUKOK UL305 TAP UL342 ILROL |
| Aircraft | A20N/M-SDE2E3FGHIRWXY/LB1 |
Departure
| Time | 2026-05-06 16:11 |
|---|---|
| Airport | Jose Maria Córdova International Airport (SKRG) |
Arrival
| Time | 2026-05-06 18:50 |
|---|---|
| Airport | Jorge Chávez International Airport (SPJC) |
| Time | Latitude | Longitude | Altitude | Speed | Heading |
|---|---|---|---|---|---|
| 2026-05-06 15:40 | 6.17002 | -75.42738 | 7017 ft | 0 kts | 317° |
| 2026-05-06 15:58 | 6.17001 | -75.42737 | 7020 ft | 2 kts | 317° |
| 2026-05-06 15:58 | 6.16991 | -75.42728 | 7021 ft | 2 kts | 321° |
| 2026-05-06 15:59 | 6.16981 | -75.42721 | 7020 ft | 1 kts | 328° |
| 2026-05-06 15:59 | 6.16970 | -75.42715 | 7020 ft | 2 kts | 348° |
| 2026-05-06 15:59 | 6.16955 | -75.42717 | 7023 ft | 2 kts | 47° |
| 2026-05-06 15:59 | 6.16950 | -75.42723 | 7018 ft | 0 kts | 52° |
| 2026-05-06 16:03 | 6.16954 | -75.42718 | 7021 ft | 2 kts | 52° |
| 2026-05-06 16:03 | 6.16978 | -75.42692 | 7017 ft | 8 kts | 43° |
| 2026-05-06 16:03 | 6.17034 | -75.42647 | 7018 ft | 12 kts | 56° |
| 2026-05-06 16:04 | 6.17041 | -75.42633 | 7018 ft | 1 kts | 65° |
| 2026-05-06 16:04 | 6.17043 | -75.42609 | 7017 ft | 6 kts | 101° |
| 2026-05-06 16:04 | 6.17006 | -75.42576 | 7015 ft | 9 kts | 145° |
| 2026-05-06 16:04 | 6.16965 | -75.42547 | 7013 ft | 5 kts | 146° |
| 2026-05-06 16:05 | 6.16925 | -75.42520 | 7015 ft | 9 kts | 146° |
| 2026-05-06 16:05 | 6.16850 | -75.42485 | 7001 ft | 14 kts | 186° |
| 2026-05-06 16:05 | 6.16737 | -75.42479 | 6999 ft | 18 kts | 178° |
| 2026-05-06 16:05 | 6.16594 | -75.42477 | 6992 ft | 22 kts | 180° |
| 2026-05-06 16:06 | 6.16425 | -75.42476 | 6984 ft | 26 kts | 179° |
| 2026-05-06 16:06 | 6.16234 | -75.42475 | 6978 ft | 28 kts | 179° |
| 2026-05-06 16:06 | 6.16035 | -75.42473 | 6976 ft | 29 kts | 178° |
| 2026-05-06 16:06 | 6.15837 | -75.42474 | 6975 ft | 28 kts | 179° |
| 2026-05-06 16:07 | 6.15642 | -75.42469 | 6975 ft | 27 kts | 177° |
| 2026-05-06 16:07 | 6.15459 | -75.42474 | 6976 ft | 26 kts | 180° |
| 2026-05-06 16:07 | 6.15280 | -75.42467 | 6977 ft | 25 kts | 176° |
| 2026-05-06 16:07 | 6.15107 | -75.42467 | 6977 ft | 24 kts | 187° |
| 2026-05-06 16:08 | 6.14937 | -75.42472 | 6977 ft | 24 kts | 180° |
| 2026-05-06 16:08 | 6.14826 | -75.42479 | 6972 ft | 9 kts | 152° |
| 2026-05-06 16:08 | 6.14817 | -75.42417 | 6972 ft | 10 kts | 83° |
| 2026-05-06 16:08 | 6.14819 | -75.42404 | 6972 ft | 0 kts | 83° |
| 2026-05-06 16:10 | 6.14819 | -75.42401 | 6972 ft | 1 kts | 82° |
| 2026-05-06 16:10 | 6.14828 | -75.42381 | 6971 ft | 7 kts | 55° |
| 2026-05-06 16:10 | 6.14876 | -75.42351 | 6975 ft | 9 kts | 27° |
| 2026-05-06 16:10 | 6.14933 | -75.42313 | 6976 ft | 12 kts | 43° |
| 2026-05-06 16:11 | 6.15101 | -75.42300 | 6979 ft | 56 kts | 359° |
| 2026-05-06 16:11 | 6.15781 | -75.42307 | 6979 ft | 135 kts | 358° |
| 2026-05-06 16:11 | 6.16906 | -75.42291 | 7225 ft | 173 kts | 1° |
| 2026-05-06 16:11 | 6.18097 | -75.42336 | 8218 ft | 171 kts | 357° |
| 2026-05-06 16:12 | 6.19304 | -75.42499 | 8986 ft | 182 kts | 356° |
| 2026-05-06 16:12 | 6.20621 | -75.42536 | 9430 ft | 200 kts | 7° |
| 2026-05-06 16:12 | 6.22046 | -75.42282 | 9828 ft | 216 kts | 26° |
| 2026-05-06 16:12 | 6.23148 | -75.41570 | 10329 ft | 216 kts | 49° |
| 2026-05-06 16:13 | 6.23961 | -75.40334 | 10994 ft | 212 kts | 73° |
| 2026-05-06 16:13 | 6.24151 | -75.38892 | 11640 ft | 209 kts | 98° |
| 2026-05-06 16:13 | 6.23693 | -75.37541 | 12268 ft | 209 kts | 122° |
| 2026-05-06 16:13 | 6.22664 | -75.36487 | 12855 ft | 215 kts | 139° |
| 2026-05-06 16:14 | 6.21486 | -75.35547 | 13493 ft | 217 kts | 139° |
| 2026-05-06 16:14 | 6.20300 | -75.34592 | 14120 ft | 219 kts | 138° |
| 2026-05-06 16:14 | 6.19115 | -75.33623 | 14667 ft | 221 kts | 137° |
| 2026-05-06 16:14 | 6.17913 | -75.32637 | 15177 ft | 225 kts | 138° |
| 2026-05-06 16:15 | 6.16631 | -75.31702 | 15582 ft | 238 kts | 152° |
| 2026-05-06 16:15 | 6.14921 | -75.31371 | 15693 ft | 269 kts | 181° |
| 2026-05-06 16:15 | 6.13053 | -75.31947 | 15852 ft | 298 kts | 208° |
| 2026-05-06 16:15 | 6.11423 | -75.33375 | 16048 ft | 325 kts | 226° |
| 2026-05-06 16:16 | 6.09834 | -75.35090 | 16228 ft | 345 kts | 221° |
| 2026-05-06 16:16 | 6.07948 | -75.36671 | 16410 ft | 362 kts | 213° |
| 2026-05-06 16:16 | 6.05767 | -75.38062 | 16578 ft | 379 kts | 207° |
| 2026-05-06 16:16 | 6.03396 | -75.39319 | 16909 ft | 389 kts | 204° |
| 2026-05-06 16:17 | 6.00949 | -75.40508 | 17483 ft | 392 kts | 201° |
| 2026-05-06 16:17 | 5.98373 | -75.41431 | 17989 ft | 394 kts | 192° |
| 2026-05-06 16:17 | 5.95682 | -75.41911 | 18575 ft | 393 kts | 182° |
| 2026-05-06 16:17 | 5.93868 | -75.41999 | 18882 ft | 394 kts | 178° |
| 2026-05-06 16:18 | 5.91343 | -75.42047 | 19334 ft | 397 kts | 179° |
| 2026-05-06 16:18 | 5.88510 | -75.42112 | 19836 ft | 400 kts | 179° |
| 2026-05-06 16:18 | 5.85714 | -75.42182 | 20296 ft | 404 kts | 179° |
| 2026-05-06 16:18 | 5.82890 | -75.42256 | 20784 ft | 407 kts | 179° |
| 2026-05-06 16:19 | 5.80041 | -75.42334 | 21275 ft | 410 kts | 180° |
| 2026-05-06 16:19 | 5.77178 | -75.42417 | 21764 ft | 414 kts | 180° |
| 2026-05-06 16:19 | 5.74295 | -75.42496 | 22245 ft | 417 kts | 180° |
| 2026-05-06 16:19 | 5.71381 | -75.42574 | 22736 ft | 421 kts | 180° |
| 2026-05-06 16:20 | 5.68440 | -75.42654 | 23251 ft | 424 kts | 180° |
| 2026-05-06 16:20 | 5.65478 | -75.42734 | 23712 ft | 427 kts | 180° |
| 2026-05-06 16:20 | 5.62495 | -75.42815 | 24118 ft | 430 kts | 180° |
| 2026-05-06 16:20 | 5.59501 | -75.42896 | 24549 ft | 432 kts | 180° |
| 2026-05-06 16:21 | 5.56482 | -75.42979 | 24966 ft | 434 kts | 180° |
| 2026-05-06 16:21 | 5.53454 | -75.43062 | 25354 ft | 437 kts | 180° |
| 2026-05-06 16:21 | 5.50408 | -75.43145 | 25755 ft | 439 kts | 180° |
| 2026-05-06 16:21 | 5.47351 | -75.43230 | 26131 ft | 441 kts | 180° |
| 2026-05-06 16:22 | 5.44275 | -75.43313 | 26497 ft | 443 kts | 180° |
| 2026-05-06 16:22 | 5.41196 | -75.43397 | 26878 ft | 445 kts | 180° |
| 2026-05-06 16:22 | 5.38080 | -75.43486 | 27244 ft | 447 kts | 180° |
| 2026-05-06 16:22 | 5.34964 | -75.43566 | 27622 ft | 450 kts | 180° |
| 2026-05-06 16:23 | 5.31817 | -75.43651 | 27999 ft | 452 kts | 180° |
| 2026-05-06 16:23 | 5.28669 | -75.43739 | 28377 ft | 454 kts | 180° |
| 2026-05-06 16:23 | 5.25498 | -75.43827 | 28745 ft | 457 kts | 180° |
| 2026-05-06 16:23 | 5.22312 | -75.43915 | 29088 ft | 459 kts | 180° |
| 2026-05-06 16:24 | 5.19153 | -75.44002 | 29433 ft | 461 kts | 180° |
| 2026-05-06 16:24 | 5.15938 | -75.44091 | 29781 ft | 463 kts | 180° |
| 2026-05-06 16:24 | 5.12715 | -75.44180 | 30095 ft | 465 kts | 180° |
| 2026-05-06 16:24 | 5.09467 | -75.44269 | 30387 ft | 468 kts | 180° |
| 2026-05-06 16:25 | 5.06209 | -75.44358 | 30665 ft | 469 kts | 180° |
| 2026-05-06 16:25 | 5.02922 | -75.44448 | 30931 ft | 472 kts | 180° |
| 2026-05-06 16:25 | 4.99638 | -75.44539 | 31207 ft | 474 kts | 180° |
| 2026-05-06 16:25 | 4.96343 | -75.44630 | 31513 ft | 475 kts | 180° |
| 2026-05-06 16:26 | 4.93039 | -75.44721 | 31840 ft | 475 kts | 180° |
| 2026-05-06 16:26 | 4.89732 | -75.44812 | 32198 ft | 474 kts | 180° |
| 2026-05-06 16:26 | 4.86431 | -75.44902 | 32556 ft | 473 kts | 180° |
| 2026-05-06 16:26 | 4.83148 | -75.44992 | 32911 ft | 472 kts | 179° |
| 2026-05-06 16:27 | 4.79862 | -75.45082 | 33268 ft | 471 kts | 180° |
| 2026-05-06 16:27 | 4.76620 | -75.45171 | 33609 ft | 471 kts | 179° |
| 2026-05-06 16:27 | 4.73356 | -75.45261 | 33932 ft | 470 kts | 179° |
| 2026-05-06 16:27 | 4.70083 | -75.45349 | 34208 ft | 469 kts | 179° |
| 2026-05-06 16:28 | 4.66819 | -75.45443 | 34511 ft | 468 kts | 179° |
| 2026-05-06 16:28 | 4.63562 | -75.45538 | 34805 ft | 467 kts | 179° |
| 2026-05-06 16:28 | 4.60320 | -75.45629 | 35092 ft | 466 kts | 179° |
| 2026-05-06 16:28 | 4.57073 | -75.45716 | 35355 ft | 466 kts | 179° |
| 2026-05-06 16:29 | 4.53827 | -75.45803 | 35645 ft | 465 kts | 180° |
| 2026-05-06 16:29 | 4.50595 | -75.45893 | 35915 ft | 464 kts | 180° |
| 2026-05-06 16:29 | 4.47401 | -75.45983 | 36183 ft | 464 kts | 180° |
| 2026-05-06 16:29 | 4.44184 | -75.46068 | 36458 ft | 462 kts | 180° |
| 2026-05-06 16:30 | 4.40969 | -75.46147 | 36732 ft | 462 kts | 180° |
| 2026-05-06 16:30 | 4.38796 | -75.46203 | 36917 ft | 461 kts | 180° |
| 2026-05-06 16:30 | 4.34550 | -75.46319 | 37272 ft | 460 kts | 181° |
| 2026-05-06 16:30 | 4.31354 | -75.46404 | 37542 ft | 459 kts | 181° |
| 2026-05-06 16:31 | 4.28165 | -75.46491 | 37797 ft | 458 kts | 181° |
| 2026-05-06 16:31 | 4.24970 | -75.46580 | 38058 ft | 457 kts | 181° |
| 2026-05-06 16:31 | 4.21786 | -75.46666 | 38191 ft | 457 kts | 181° |
| 2026-05-06 16:31 | 4.18616 | -75.46752 | 38192 ft | 455 kts | 181° |
| 2026-05-06 16:32 | 4.12290 | -75.46925 | 38190 ft | 455 kts | 181° |
| 2026-05-06 16:32 | 4.05949 | -75.47099 | 38185 ft | 455 kts | 181° |
| 2026-05-06 16:33 | 3.99612 | -75.47272 | 38184 ft | 455 kts | 181° |
| 2026-05-06 16:34 | 3.90144 | -75.47531 | 38169 ft | 455 kts | 181° |
| 2026-05-06 16:34 | 3.83804 | -75.47706 | 38156 ft | 455 kts | 181° |
| 2026-05-06 16:35 | 3.77475 | -75.47880 | 38146 ft | 455 kts | 181° |
| 2026-05-06 16:35 | 3.71135 | -75.48054 | 38134 ft | 455 kts | 181° |
| 2026-05-06 16:36 | 3.64792 | -75.48228 | 38130 ft | 456 kts | 181° |
| 2026-05-06 16:36 | 3.58491 | -75.48400 | 38127 ft | 456 kts | 181° |
| 2026-05-06 16:37 | 3.52104 | -75.48575 | 38129 ft | 456 kts | 181° |
| 2026-05-06 16:37 | 3.45787 | -75.48749 | 38132 ft | 457 kts | 181° |
| 2026-05-06 16:38 | 3.39446 | -75.48923 | 38116 ft | 455 kts | 181° |
| 2026-05-06 16:38 | 3.33118 | -75.49096 | 38117 ft | 454 kts | 181° |
| 2026-05-06 16:39 | 3.26814 | -75.49268 | 38119 ft | 454 kts | 181° |
| 2026-05-06 16:39 | 3.20492 | -75.49442 | 38116 ft | 454 kts | 181° |
| 2026-05-06 16:40 | 3.14177 | -75.49615 | 38117 ft | 454 kts | 181° |
| 2026-05-06 16:40 | 3.07864 | -75.49787 | 38114 ft | 454 kts | 181° |
| 2026-05-06 16:41 | 3.01540 | -75.49960 | 38110 ft | 454 kts | 181° |
| 2026-05-06 16:41 | 2.95219 | -75.50132 | 38113 ft | 454 kts | 181° |
| 2026-05-06 16:42 | 2.88936 | -75.50304 | 38118 ft | 455 kts | 181° |
| 2026-05-06 16:42 | 2.82627 | -75.50477 | 38115 ft | 453 kts | 181° |
| 2026-05-06 16:43 | 2.76327 | -75.50649 | 38119 ft | 453 kts | 181° |
| 2026-05-06 16:43 | 2.70027 | -75.50821 | 38118 ft | 452 kts | 181° |
| 2026-05-06 16:44 | 2.63748 | -75.50992 | 38121 ft | 451 kts | 181° |
| 2026-05-06 16:44 | 2.57475 | -75.51168 | 38120 ft | 450 kts | 181° |
| 2026-05-06 16:45 | 2.51230 | -75.51338 | 38121 ft | 449 kts | 181° |
| 2026-05-06 16:45 | 2.44995 | -75.51505 | 38130 ft | 448 kts | 181° |
| 2026-05-06 16:46 | 2.38809 | -75.51673 | 38130 ft | 447 kts | 181° |
| 2026-05-06 16:46 | 2.32598 | -75.51842 | 38137 ft | 446 kts | 181° |
| 2026-05-06 16:47 | 2.26405 | -75.52011 | 38148 ft | 445 kts | 182° |
| 2026-05-06 16:47 | 2.20207 | -75.52180 | 38157 ft | 444 kts | 182° |
| 2026-05-06 16:48 | 2.14032 | -75.52348 | 38162 ft | 445 kts | 182° |
| 2026-05-06 16:48 | 2.07854 | -75.52517 | 38163 ft | 442 kts | 182° |
| 2026-05-06 16:49 | 2.01717 | -75.52693 | 38167 ft | 442 kts | 182° |
| 2026-05-06 16:49 | 1.95557 | -75.52853 | 38162 ft | 444 kts | 182° |
| 2026-05-06 16:50 | 1.89405 | -75.53020 | 38148 ft | 445 kts | 182° |
| 2026-05-06 16:50 | 1.83239 | -75.53177 | 38131 ft | 443 kts | 182° |
| 2026-05-06 16:51 | 1.77033 | -75.53347 | 38118 ft | 444 kts | 182° |
| 2026-05-06 16:51 | 1.70899 | -75.53525 | 38107 ft | 443 kts | 182° |
| 2026-05-06 16:52 | 1.64712 | -75.53694 | 38101 ft | 444 kts | 182° |
| 2026-05-06 16:52 | 1.58530 | -75.53864 | 38099 ft | 444 kts | 182° |
| 2026-05-06 16:53 | 1.52353 | -75.54031 | 38101 ft | 447 kts | 182° |
| 2026-05-06 16:53 | 1.46136 | -75.54199 | 38103 ft | 447 kts | 182° |
| 2026-05-06 16:54 | 1.39907 | -75.54362 | 38099 ft | 448 kts | 182° |
| 2026-05-06 16:54 | 1.33658 | -75.54536 | 38092 ft | 449 kts | 182° |
| 2026-05-06 16:55 | 1.27398 | -75.54709 | 38085 ft | 451 kts | 182° |
| 2026-05-06 16:55 | 1.21114 | -75.54885 | 38080 ft | 451 kts | 182° |
| 2026-05-06 16:56 | 1.14834 | -75.55053 | 38079 ft | 452 kts | 182° |
| 2026-05-06 16:56 | 1.08569 | -75.55222 | 38076 ft | 453 kts | 182° |
| 2026-05-06 16:57 | 1.02269 | -75.55394 | 38073 ft | 453 kts | 182° |
| 2026-05-06 16:57 | 0.95964 | -75.55566 | 38073 ft | 454 kts | 182° |
| 2026-05-06 16:58 | 0.89647 | -75.55739 | 38072 ft | 454 kts | 181° |
| 2026-05-06 16:58 | 0.83311 | -75.55911 | 38071 ft | 455 kts | 181° |
| 2026-05-06 16:59 | 0.76979 | -75.56084 | 38072 ft | 455 kts | 181° |
| 2026-05-06 16:59 | 0.70676 | -75.56256 | 38066 ft | 455 kts | 182° |
| 2026-05-06 17:00 | 0.64365 | -75.56428 | 38072 ft | 453 kts | 182° |
| 2026-05-06 17:00 | 0.58056 | -75.56600 | 38071 ft | 453 kts | 182° |
| 2026-05-06 17:01 | 0.51749 | -75.56772 | 38066 ft | 453 kts | 182° |
| 2026-05-06 17:01 | 0.46517 | -75.56914 | 38064 ft | 453 kts | 182° |
| 2026-05-06 17:02 | 0.39152 | -75.57115 | 38068 ft | 453 kts | 182° |
| 2026-05-06 17:02 | 0.33920 | -75.57258 | 38071 ft | 452 kts | 182° |
| 2026-05-06 17:03 | 0.27625 | -75.57429 | 38067 ft | 451 kts | 182° |
| 2026-05-06 17:03 | 0.21356 | -75.57600 | 38071 ft | 450 kts | 182° |
| 2026-05-06 17:04 | 0.15086 | -75.57771 | 38067 ft | 450 kts | 182° |
| 2026-05-06 17:04 | 0.08865 | -75.57944 | 38069 ft | 450 kts | 182° |
| 2026-05-06 17:05 | 0.02657 | -75.58677 | 38069 ft | 449 kts | 190° |
| 2026-05-06 17:05 | -0.03517 | -75.59743 | 38057 ft | 449 kts | 189° |
| 2026-05-06 17:06 | -0.09682 | -75.60794 | 38060 ft | 449 kts | 189° |
| 2026-05-06 17:06 | -0.15847 | -75.61846 | 38059 ft | 449 kts | 189° |
| 2026-05-06 17:07 | -0.22023 | -75.62901 | 38061 ft | 449 kts | 189° |
| 2026-05-06 17:07 | -0.28152 | -75.63949 | 38057 ft | 449 kts | 189° |
| 2026-05-06 17:08 | -0.34317 | -75.65003 | 38059 ft | 449 kts | 189° |
| 2026-05-06 17:08 | -0.40486 | -75.66057 | 38056 ft | 449 kts | 189° |
| 2026-05-06 17:09 | -0.46638 | -75.67108 | 38058 ft | 448 kts | 189° |
| 2026-05-06 17:09 | -0.52789 | -75.68160 | 38054 ft | 448 kts | 190° |
| 2026-05-06 17:10 | -0.58898 | -75.69203 | 38050 ft | 448 kts | 190° |
| 2026-05-06 17:10 | -0.65037 | -75.70252 | 38050 ft | 447 kts | 190° |
| 2026-05-06 17:11 | -0.71171 | -75.71301 | 38046 ft | 447 kts | 190° |
| 2026-05-06 17:11 | -0.77304 | -75.72350 | 38044 ft | 447 kts | 190° |
| 2026-05-06 17:12 | -0.83438 | -75.73394 | 38045 ft | 447 kts | 190° |
| 2026-05-06 17:12 | -0.89576 | -75.74444 | 38042 ft | 447 kts | 190° |
| 2026-05-06 17:13 | -0.95701 | -75.75494 | 38034 ft | 447 kts | 190° |
| 2026-05-06 17:13 | -1.01831 | -75.76543 | 38035 ft | 447 kts | 190° |
| 2026-05-06 17:14 | -1.07925 | -75.77585 | 38032 ft | 448 kts | 190° |
| 2026-05-06 17:14 | -1.14076 | -75.78636 | 38031 ft | 448 kts | 190° |
| 2026-05-06 17:15 | -1.20228 | -75.79688 | 38033 ft | 449 kts | 190° |
| 2026-05-06 17:15 | -1.26390 | -75.80741 | 38041 ft | 450 kts | 190° |
| 2026-05-06 17:16 | -1.32565 | -75.81798 | 38040 ft | 451 kts | 190° |
| 2026-05-06 17:16 | -1.38767 | -75.82858 | 38047 ft | 451 kts | 190° |
| 2026-05-06 17:17 | -1.44961 | -75.83917 | 38042 ft | 452 kts | 190° |
| 2026-05-06 17:17 | -1.51128 | -75.84972 | 38046 ft | 452 kts | 190° |
| 2026-05-06 17:18 | -1.57339 | -75.86034 | 38041 ft | 452 kts | 190° |
| 2026-05-06 17:18 | -1.63552 | -75.87097 | 38043 ft | 453 kts | 190° |
| 2026-05-06 17:19 | -1.69767 | -75.88160 | 38041 ft | 453 kts | 190° |
| 2026-05-06 17:19 | -1.75977 | -75.89222 | 38042 ft | 452 kts | 190° |
| 2026-05-06 17:20 | -1.82147 | -75.90278 | 38034 ft | 453 kts | 190° |
| 2026-05-06 17:20 | -1.88336 | -75.91336 | 38032 ft | 450 kts | 190° |
| 2026-05-06 17:21 | -1.94519 | -75.92394 | 38031 ft | 451 kts | 190° |
| 2026-05-06 17:21 | -2.00713 | -75.93397 | 38031 ft | 451 kts | 187° |
| 2026-05-06 17:22 | -2.06959 | -75.93951 | 38032 ft | 450 kts | 186° |
| 2026-05-06 17:22 | -2.13208 | -75.94509 | 38032 ft | 451 kts | 186° |
| 2026-05-06 17:23 | -2.19464 | -75.95068 | 38037 ft | 451 kts | 186° |
| 2026-05-06 17:23 | -2.25714 | -75.95626 | 38035 ft | 451 kts | 186° |
| 2026-05-06 17:24 | -2.31922 | -75.96179 | 38041 ft | 451 kts | 186° |
| 2026-05-06 17:24 | -2.38182 | -75.96738 | 38041 ft | 451 kts | 186° |
| 2026-05-06 17:25 | -2.44438 | -75.97296 | 38035 ft | 451 kts | 186° |
| 2026-05-06 17:25 | -2.50683 | -75.97853 | 38033 ft | 450 kts | 186° |
| 2026-05-06 17:26 | -2.56926 | -75.98410 | 38033 ft | 450 kts | 186° |
| 2026-05-06 17:26 | -2.63124 | -75.98963 | 38030 ft | 450 kts | 186° |
| 2026-05-06 17:27 | -2.69362 | -75.99519 | 38029 ft | 449 kts | 186° |
| 2026-05-06 17:27 | -2.75591 | -76.00076 | 38025 ft | 449 kts | 186° |
| 2026-05-06 17:28 | -2.81822 | -76.00632 | 38021 ft | 449 kts | 186° |
| 2026-05-06 17:28 | -2.88037 | -76.01187 | 38020 ft | 449 kts | 186° |
| 2026-05-06 17:29 | -2.94261 | -76.01743 | 38015 ft | 448 kts | 186° |
| 2026-05-06 17:29 | -3.00440 | -76.02295 | 38015 ft | 448 kts | 186° |
| 2026-05-06 17:30 | -3.06651 | -76.02849 | 38009 ft | 448 kts | 186° |
| 2026-05-06 17:30 | -3.12869 | -76.03405 | 38012 ft | 448 kts | 186° |
| 2026-05-06 17:31 | -3.19091 | -76.03962 | 38013 ft | 449 kts | 186° |
| 2026-05-06 17:31 | -3.25308 | -76.04528 | 38012 ft | 449 kts | 185° |
| 2026-05-06 17:32 | -3.31530 | -76.05078 | 38015 ft | 449 kts | 185° |
| 2026-05-06 17:32 | -3.37753 | -76.05646 | 38018 ft | 449 kts | 185° |
| 2026-05-06 17:33 | -3.43987 | -76.06191 | 38022 ft | 449 kts | 185° |
| 2026-05-06 17:33 | -3.50221 | -76.06746 | 38029 ft | 450 kts | 185° |
| 2026-05-06 17:34 | -3.56426 | -76.07296 | 38036 ft | 450 kts | 185° |
| 2026-05-06 17:34 | -3.62672 | -76.07855 | 38041 ft | 451 kts | 185° |
| 2026-05-06 17:35 | -3.68940 | -76.08421 | 38044 ft | 451 kts | 185° |
| 2026-05-06 17:35 | -3.75183 | -76.08983 | 38045 ft | 451 kts | 185° |
| 2026-05-06 17:36 | -3.84557 | -76.09820 | 38035 ft | 449 kts | 185° |
| 2026-05-06 17:36 | -3.90795 | -76.10374 | 38034 ft | 450 kts | 186° |
| 2026-05-06 17:37 | -3.97030 | -76.10944 | 38035 ft | 450 kts | 186° |
| 2026-05-06 17:37 | -4.03228 | -76.11499 | 38034 ft | 450 kts | 186° |
| 2026-05-06 17:38 | -4.09470 | -76.12055 | 38033 ft | 450 kts | 186° |
| 2026-05-06 17:38 | -4.15710 | -76.12611 | 38036 ft | 450 kts | 186° |
| 2026-05-06 17:39 | -4.21951 | -76.13169 | 38035 ft | 450 kts | 186° |
| 2026-05-06 17:39 | -4.28195 | -76.13727 | 38036 ft | 450 kts | 186° |
| 2026-05-06 17:40 | -4.34444 | -76.14286 | 38037 ft | 451 kts | 186° |
| 2026-05-06 17:40 | -4.40662 | -76.14843 | 38037 ft | 451 kts | 186° |
| 2026-05-06 17:41 | -4.46906 | -76.15403 | 38038 ft | 451 kts | 186° |
| 2026-05-06 17:41 | -4.53152 | -76.15963 | 38038 ft | 450 kts | 186° |
| 2026-05-06 17:42 | -4.59396 | -76.16523 | 38029 ft | 450 kts | 186° |
| 2026-05-06 17:42 | -4.65635 | -76.17083 | 38028 ft | 450 kts | 186° |
| 2026-05-06 17:43 | -4.71880 | -76.17644 | 38026 ft | 450 kts | 186° |
| 2026-05-06 17:43 | -4.78080 | -76.18200 | 38021 ft | 450 kts | 186° |
| 2026-05-06 17:44 | -4.84330 | -76.18761 | 38024 ft | 450 kts | 186° |
| 2026-05-06 17:44 | -4.90574 | -76.19321 | 38021 ft | 450 kts | 186° |
| 2026-05-06 17:45 | -4.96830 | -76.19883 | 38021 ft | 451 kts | 186° |
| 2026-05-06 17:45 | -5.03080 | -76.20444 | 38018 ft | 451 kts | 185° |
| 2026-05-06 17:46 | -5.08494 | -76.20930 | 38025 ft | 451 kts | 185° |
| 2026-05-06 17:46 | -5.12304 | -76.21272 | 38021 ft | 452 kts | 185° |
| 2026-05-06 17:47 | -5.18571 | -76.21835 | 38021 ft | 452 kts | 185° |
| 2026-05-06 17:47 | -5.24845 | -76.22399 | 38017 ft | 453 kts | 185° |
| 2026-05-06 17:48 | -5.31129 | -76.22963 | 38016 ft | 453 kts | 185° |
| 2026-05-06 17:48 | -5.37389 | -76.23526 | 38021 ft | 454 kts | 185° |
| 2026-05-06 17:49 | -5.43693 | -76.24094 | 38014 ft | 455 kts | 185° |
| 2026-05-06 17:49 | -5.50015 | -76.24664 | 38015 ft | 456 kts | 185° |
| 2026-05-06 17:50 | -5.56352 | -76.25235 | 38012 ft | 457 kts | 185° |
| 2026-05-06 17:50 | -5.62676 | -76.25805 | 38010 ft | 459 kts | 185° |
| 2026-05-06 17:51 | -5.69054 | -76.26380 | 38022 ft | 462 kts | 185° |
| 2026-05-06 17:51 | -5.75480 | -76.26960 | 38023 ft | 462 kts | 185° |
| 2026-05-06 17:52 | -5.80842 | -76.27444 | 38024 ft | 462 kts | 185° |
| 2026-05-06 17:52 | -5.87214 | -76.28019 | 38022 ft | 462 kts | 185° |
| 2026-05-06 17:53 | -5.93615 | -76.28596 | 38025 ft | 462 kts | 185° |
| 2026-05-06 17:53 | -6.00029 | -76.29175 | 38022 ft | 462 kts | 185° |
| 2026-05-06 17:54 | -6.06435 | -76.29754 | 38031 ft | 462 kts | 185° |
| 2026-05-06 17:54 | -6.12841 | -76.30332 | 38035 ft | 462 kts | 186° |
| 2026-05-06 17:55 | -6.19255 | -76.30912 | 38047 ft | 463 kts | 186° |
| 2026-05-06 17:55 | -6.25676 | -76.31492 | 38045 ft | 463 kts | 186° |
| 2026-05-06 17:56 | -6.32098 | -76.32072 | 38056 ft | 463 kts | 186° |
| 2026-05-06 17:56 | -6.38533 | -76.32655 | 38045 ft | 463 kts | 186° |
| 2026-05-06 17:57 | -6.44871 | -76.33228 | 38050 ft | 460 kts | 186° |
| 2026-05-06 17:57 | -6.51276 | -76.33810 | 38052 ft | 463 kts | 186° |
| 2026-05-06 17:58 | -6.57686 | -76.34386 | 38048 ft | 462 kts | 186° |
| 2026-05-06 17:58 | -6.64106 | -76.34976 | 38046 ft | 462 kts | 187° |
| 2026-05-06 17:59 | -6.70360 | -76.36222 | 38042 ft | 462 kts | 194° |
| 2026-05-06 17:59 | -6.76605 | -76.37747 | 38037 ft | 462 kts | 194° |
| 2026-05-06 18:00 | -6.82862 | -76.39264 | 38033 ft | 462 kts | 194° |
| 2026-05-06 18:00 | -6.89123 | -76.40789 | 38030 ft | 462 kts | 194° |
| 2026-05-06 18:01 | -6.95377 | -76.42311 | 38034 ft | 462 kts | 194° |
| 2026-05-06 18:01 | -7.01634 | -76.43829 | 38034 ft | 463 kts | 194° |
| 2026-05-06 18:02 | -7.07853 | -76.45342 | 38037 ft | 463 kts | 194° |
| 2026-05-06 18:02 | -7.14159 | -76.46877 | 38029 ft | 463 kts | 194° |
| 2026-05-06 18:03 | -7.20387 | -76.48394 | 38034 ft | 463 kts | 194° |
| 2026-05-06 18:03 | -7.26654 | -76.49920 | 38035 ft | 463 kts | 194° |
| 2026-05-06 18:04 | -7.32921 | -76.51447 | 38038 ft | 463 kts | 194° |
| 2026-05-06 18:04 | -7.39193 | -76.52976 | 38036 ft | 463 kts | 195° |
| 2026-05-06 18:05 | -7.45434 | -76.54498 | 38042 ft | 463 kts | 195° |
| 2026-05-06 18:05 | -7.51706 | -76.56028 | 38048 ft | 463 kts | 195° |
| 2026-05-06 18:06 | -7.57977 | -76.57557 | 38053 ft | 463 kts | 195° |
| 2026-05-06 18:06 | -7.64241 | -76.59086 | 38054 ft | 463 kts | 195° |
| 2026-05-06 18:07 | -7.70498 | -76.60613 | 38063 ft | 463 kts | 195° |
| 2026-05-06 18:07 | -7.76756 | -76.62141 | 38073 ft | 462 kts | 195° |
| 2026-05-06 18:08 | -7.83021 | -76.63671 | 38080 ft | 463 kts | 195° |
| 2026-05-06 18:08 | -7.89275 | -76.65199 | 38086 ft | 462 kts | 195° |
| 2026-05-06 18:09 | -7.95529 | -76.66728 | 38096 ft | 462 kts | 195° |
| 2026-05-06 18:09 | -8.01784 | -76.68257 | 38107 ft | 462 kts | 195° |
| 2026-05-06 18:10 | -8.08004 | -76.69778 | 38121 ft | 462 kts | 195° |
| 2026-05-06 18:10 | -8.14227 | -76.71300 | 38137 ft | 462 kts | 195° |
| 2026-05-06 18:11 | -8.20482 | -76.72831 | 38150 ft | 463 kts | 195° |
| 2026-05-06 18:11 | -8.26744 | -76.74366 | 38171 ft | 462 kts | 195° |
| 2026-05-06 18:12 | -8.33001 | -76.75905 | 38181 ft | 463 kts | 195° |
| 2026-05-06 18:12 | -8.39267 | -76.77433 | 38198 ft | 463 kts | 195° |
| 2026-05-06 18:13 | -8.45531 | -76.78966 | 38221 ft | 464 kts | 195° |
| 2026-05-06 18:13 | -8.51803 | -76.80503 | 38240 ft | 464 kts | 195° |
| 2026-05-06 18:14 | -8.58036 | -76.82033 | 38252 ft | 464 kts | 195° |
| 2026-05-06 18:14 | -8.64313 | -76.83570 | 38260 ft | 463 kts | 195° |
| 2026-05-06 18:15 | -8.70573 | -76.85106 | 38261 ft | 463 kts | 195° |
| 2026-05-06 18:15 | -8.76839 | -76.86644 | 38266 ft | 463 kts | 195° |
| 2026-05-06 18:16 | -8.83103 | -76.88182 | 38273 ft | 463 kts | 195° |
| 2026-05-06 18:16 | -8.89332 | -76.89712 | 38273 ft | 463 kts | 195° |
| 2026-05-06 18:17 | -8.95596 | -76.91251 | 38273 ft | 463 kts | 195° |
| 2026-05-06 18:17 | -9.01851 | -76.92789 | 38282 ft | 462 kts | 195° |
| 2026-05-06 18:18 | -9.08099 | -76.94329 | 38293 ft | 463 kts | 195° |
| 2026-05-06 18:18 | -9.14361 | -76.95868 | 38297 ft | 462 kts | 195° |
| 2026-05-06 18:19 | -9.20619 | -76.97399 | 38288 ft | 461 kts | 195° |
| 2026-05-06 18:19 | -9.26858 | -76.98935 | 38307 ft | 463 kts | 195° |
| 2026-05-06 18:20 | -9.33134 | -77.00485 | 38320 ft | 464 kts | 195° |
| 2026-05-06 18:20 | -9.39366 | -77.02021 | 38331 ft | 463 kts | 195° |
| 2026-05-06 18:21 | -9.45630 | -77.03564 | 38337 ft | 463 kts | 195° |
| 2026-05-06 18:21 | -9.51893 | -77.05113 | 38340 ft | 463 kts | 195° |
| 2026-05-06 18:22 | -9.58154 | -77.06654 | 38343 ft | 463 kts | 195° |
| 2026-05-06 18:22 | -9.64419 | -77.08198 | 38339 ft | 463 kts | 195° |
| 2026-05-06 18:23 | -9.70689 | -77.09749 | 38321 ft | 463 kts | 195° |
| 2026-05-06 18:23 | -9.76939 | -77.11284 | 38315 ft | 462 kts | 195° |
| 2026-05-06 18:24 | -9.83154 | -77.12830 | 38302 ft | 463 kts | 195° |
| 2026-05-06 18:24 | -9.89417 | -77.14373 | 38291 ft | 463 kts | 195° |
| 2026-05-06 18:25 | -9.92544 | -77.15144 | 38092 ft | 463 kts | 195° |
| 2026-05-06 18:25 | -9.95680 | -77.15918 | 37832 ft | 463 kts | 195° |
| 2026-05-06 18:25 | -9.98820 | -77.16692 | 37530 ft | 464 kts | 195° |
| 2026-05-06 18:25 | -10.01978 | -77.17475 | 36849 ft | 469 kts | 195° |
| 2026-05-06 18:26 | -10.05169 | -77.18264 | 35962 ft | 475 kts | 195° |
| 2026-05-06 18:26 | -10.08380 | -77.19060 | 35184 ft | 477 kts | 195° |
| 2026-05-06 18:26 | -10.11625 | -77.19862 | 34408 ft | 479 kts | 195° |
| 2026-05-06 18:26 | -10.14880 | -77.20672 | 33548 ft | 482 kts | 195° |
| 2026-05-06 18:27 | -10.18112 | -77.21475 | 32663 ft | 484 kts | 194° |
| 2026-05-06 18:27 | -10.21389 | -77.22287 | 31836 ft | 485 kts | 194° |
| 2026-05-06 18:27 | -10.24685 | -77.23108 | 31048 ft | 487 kts | 194° |
| 2026-05-06 18:27 | -10.27958 | -77.23921 | 30464 ft | 483 kts | 194° |
| 2026-05-06 18:28 | -10.31215 | -77.24726 | 29812 ft | 479 kts | 193° |
| 2026-05-06 18:28 | -10.34442 | -77.25524 | 29190 ft | 474 kts | 193° |
| 2026-05-06 18:28 | -10.37628 | -77.26312 | 28568 ft | 469 kts | 193° |
| 2026-05-06 18:28 | -10.40779 | -77.27093 | 27946 ft | 465 kts | 193° |
| 2026-05-06 18:29 | -10.43914 | -77.27870 | 27325 ft | 460 kts | 193° |
| 2026-05-06 18:29 | -10.47009 | -77.28638 | 26681 ft | 456 kts | 193° |
| 2026-05-06 18:29 | -10.50081 | -77.29362 | 26087 ft | 451 kts | 190° |
| 2026-05-06 18:29 | -10.53186 | -77.29750 | 25470 ft | 448 kts | 183° |
| 2026-05-06 18:30 | -10.56286 | -77.29815 | 24873 ft | 443 kts | 180° |
| 2026-05-06 18:30 | -10.59327 | -77.29862 | 24265 ft | 441 kts | 180° |
| 2026-05-06 18:30 | -10.62383 | -77.29915 | 23636 ft | 437 kts | 180° |
| 2026-05-06 18:30 | -10.65419 | -77.29968 | 22981 ft | 433 kts | 180° |
| 2026-05-06 18:31 | -10.68417 | -77.30018 | 22387 ft | 428 kts | 180° |
| 2026-05-06 18:31 | -10.71372 | -77.30072 | 21779 ft | 422 kts | 180° |
| 2026-05-06 18:31 | -10.74299 | -77.30122 | 21176 ft | 418 kts | 180° |
| 2026-05-06 18:31 | -10.77197 | -77.30172 | 20557 ft | 414 kts | 180° |
| 2026-05-06 18:32 | -10.80068 | -77.30222 | 19945 ft | 411 kts | 180° |
| 2026-05-06 18:32 | -10.82912 | -77.30270 | 19332 ft | 409 kts | 180° |
| 2026-05-06 18:32 | -10.85739 | -77.30320 | 18734 ft | 405 kts | 180° |
| 2026-05-06 18:32 | -10.88552 | -77.30370 | 18079 ft | 403 kts | 180° |
| 2026-05-06 18:33 | -10.91334 | -77.30419 | 17530 ft | 396 kts | 180° |
| 2026-05-06 18:33 | -10.94072 | -77.30470 | 16937 ft | 391 kts | 180° |
| 2026-05-06 18:33 | -10.96779 | -77.30521 | 16345 ft | 387 kts | 180° |
| 2026-05-06 18:33 | -10.99460 | -77.30569 | 15771 ft | 380 kts | 180° |
| 2026-05-06 18:34 | -11.02032 | -77.30609 | 15163 ft | 369 kts | 180° |
| 2026-05-06 18:34 | -11.04589 | -77.30656 | 14669 ft | 359 kts | 180° |
| 2026-05-06 18:34 | -11.07041 | -77.30704 | 14509 ft | 346 kts | 180° |
| 2026-05-06 18:34 | -11.09403 | -77.30747 | 14376 ft | 332 kts | 180° |
| 2026-05-06 18:35 | -11.11651 | -77.30788 | 14180 ft | 323 kts | 180° |
| 2026-05-06 18:35 | -11.13877 | -77.30825 | 13937 ft | 316 kts | 180° |
| 2026-05-06 18:35 | -11.16067 | -77.30862 | 13566 ft | 314 kts | 180° |
| 2026-05-06 18:35 | -11.18244 | -77.30899 | 13155 ft | 312 kts | 180° |
| 2026-05-06 18:36 | -11.20412 | -77.30937 | 12753 ft | 310 kts | 180° |
| 2026-05-06 18:36 | -11.22565 | -77.30974 | 12341 ft | 309 kts | 180° |
| 2026-05-06 18:36 | -11.24711 | -77.31010 | 11937 ft | 307 kts | 180° |
| 2026-05-06 18:36 | -11.26842 | -77.31047 | 11537 ft | 306 kts | 180° |
| 2026-05-06 18:37 | -11.28968 | -77.31084 | 11134 ft | 304 kts | 180° |
| 2026-05-06 18:37 | -11.30372 | -77.31107 | 10858 ft | 303 kts | 180° |
| 2026-05-06 18:37 | -11.33186 | -77.31156 | 10332 ft | 301 kts | 181° |
| 2026-05-06 18:37 | -11.35252 | -77.31191 | 9937 ft | 300 kts | 181° |
| 2026-05-06 18:38 | -11.37333 | -77.31227 | 9512 ft | 298 kts | 181° |
| 2026-05-06 18:38 | -11.39399 | -77.31264 | 9114 ft | 295 kts | 181° |
| 2026-05-06 18:38 | -11.41442 | -77.31299 | 8717 ft | 293 kts | 181° |
| 2026-05-06 18:38 | -11.43476 | -77.31332 | 8325 ft | 290 kts | 180° |
| 2026-05-06 18:39 | -11.44809 | -77.31354 | 8063 ft | 289 kts | 180° |
| 2026-05-06 18:39 | -11.46825 | -77.31385 | 7673 ft | 289 kts | 180° |
| 2026-05-06 18:39 | -11.48833 | -77.31421 | 7274 ft | 288 kts | 181° |
| 2026-05-06 18:40 | -11.53482 | -77.31498 | 6360 ft | 286 kts | 180° |
| 2026-05-06 18:40 | -11.54820 | -77.31506 | 6083 ft | 284 kts | 177° |
| 2026-05-06 18:40 | -11.56788 | -77.31492 | 5691 ft | 282 kts | 180° |
| 2026-05-06 18:40 | -11.58747 | -77.31535 | 5303 ft | 280 kts | 181° |
| 2026-05-06 18:41 | -11.60640 | -77.31590 | 5113 ft | 271 kts | 181° |
| 2026-05-06 18:41 | -11.62480 | -77.31537 | 4987 ft | 259 kts | 171° |
| 2026-05-06 18:41 | -11.64198 | -77.31041 | 4682 ft | 256 kts | 156° |
| 2026-05-06 18:41 | -11.65804 | -77.30267 | 4347 ft | 255 kts | 154° |
| 2026-05-06 18:42 | -11.67402 | -77.29500 | 4022 ft | 253 kts | 155° |
| 2026-05-06 18:42 | -11.68997 | -77.28744 | 3698 ft | 252 kts | 155° |
| 2026-05-06 18:42 | -11.70436 | -77.28064 | 3409 ft | 251 kts | 155° |
| 2026-05-06 18:42 | -11.71647 | -77.27493 | 3162 ft | 250 kts | 155° |
| 2026-05-06 18:43 | -11.73228 | -77.26748 | 2844 ft | 248 kts | 155° |
| 2026-05-06 18:43 | -11.74788 | -77.26011 | 2523 ft | 247 kts | 155° |
| 2026-05-06 18:43 | -11.76343 | -77.25277 | 2229 ft | 245 kts | 155° |
| 2026-05-06 18:43 | -11.77854 | -77.24565 | 2103 ft | 234 kts | 155° |
| 2026-05-06 18:44 | -11.79274 | -77.23896 | 2088 ft | 221 kts | 156° |
| 2026-05-06 18:44 | -11.80627 | -77.23259 | 2092 ft | 207 kts | 155° |
| 2026-05-06 18:44 | -11.81907 | -77.22631 | 2099 ft | 208 kts | 154° |
| 2026-05-06 18:44 | -11.83177 | -77.21997 | 2084 ft | 196 kts | 155° |
| 2026-05-06 18:45 | -11.84358 | -77.21408 | 2086 ft | 182 kts | 155° |
| 2026-05-06 18:45 | -11.85511 | -77.20843 | 2111 ft | 186 kts | 154° |
| 2026-05-06 18:45 | -11.86627 | -77.20287 | 2067 ft | 171 kts | 155° |
| 2026-05-06 18:45 | -11.87655 | -77.19777 | 1998 ft | 159 kts | 155° |
| 2026-05-06 18:46 | -11.88613 | -77.19308 | 1916 ft | 148 kts | 157° |
| 2026-05-06 18:46 | -11.89497 | -77.18899 | 1790 ft | 139 kts | 156° |
| 2026-05-06 18:46 | -11.90347 | -77.18488 | 1689 ft | 124 kts | 156° |
| 2026-05-06 18:46 | -11.91103 | -77.18115 | 1700 ft | 125 kts | 156° |
| 2026-05-06 18:47 | -11.91911 | -77.17719 | 1693 ft | 128 kts | 156° |
| 2026-05-06 18:47 | -11.92698 | -77.17325 | 1695 ft | 126 kts | 156° |
| 2026-05-06 18:47 | -11.93488 | -77.16937 | 1705 ft | 126 kts | 156° |
| 2026-05-06 18:47 | -11.94241 | -77.16563 | 1570 ft | 129 kts | 156° |
| 2026-05-06 18:48 | -11.95041 | -77.16164 | 1399 ft | 127 kts | 156° |
| 2026-05-06 18:48 | -11.95837 | -77.15771 | 1237 ft | 127 kts | 156° |
| 2026-05-06 18:48 | -11.96631 | -77.15377 | 1069 ft | 127 kts | 157° |
| 2026-05-06 18:48 | -11.97412 | -77.14989 | 903 ft | 126 kts | 157° |
| 2026-05-06 18:49 | -11.98197 | -77.14600 | 733 ft | 124 kts | 155° |
| 2026-05-06 18:49 | -11.98980 | -77.14212 | 569 ft | 125 kts | 154° |
| 2026-05-06 18:49 | -11.99760 | -77.13820 | 362 ft | 126 kts | 155° |
| 2026-05-06 18:49 | -12.00539 | -77.13442 | 201 ft | 120 kts | 154° |
| 2026-05-06 18:50 | -12.01288 | -77.13068 | 70 ft | 119 kts | 157° |
| 2026-05-06 18:50 | -12.02007 | -77.12714 | 42 ft | 98 kts | 153° |
| 2026-05-06 18:50 | -12.02437 | -77.12506 | 47 ft | 41 kts | 155° |
| 2026-05-06 18:50 | -12.02577 | -77.12436 | 50 ft | 22 kts | 148° |
| 2026-05-06 18:51 | -12.02715 | -77.12301 | 50 ft | 28 kts | 138° |
| 2026-05-06 18:51 | -12.02827 | -77.12147 | 62 ft | 26 kts | 123° |
| 2026-05-06 18:51 | -12.02961 | -77.12051 | 68 ft | 19 kts | 126° |
| 2026-05-06 18:51 | -12.02963 | -77.12016 | 71 ft | 5 kts | 82° |
| 2026-05-06 18:52 | -12.02982 | -77.11991 | 71 ft | 8 kts | 147° |
| 2026-05-06 18:52 | -12.03036 | -77.11943 | 71 ft | 3 kts | 103° |
| 2026-05-06 18:52 | -12.03032 | -77.11934 | 68 ft | 4 kts | 71° |
| 2026-05-06 18:52 | -12.03017 | -77.11897 | 84 ft | 0 kts | 65° |
| 2026-05-06 18:53 | -12.03016 | -77.11896 | 84 ft | 0 kts | 65° |